sensor_id;sensor_type;location;lat;lon;timestamp;pressure;altitude;pressure_sealevel;temperature;humidity
48846;BME280;34665;51.886;5.436;2022-08-01T00:00:31;101525.34;;;24.32;100.00
48846;BME280;34665;51.886;5.436;2022-08-01T00:02:56;101526.19;;;24.23;100.00
48846;BME280;34665;51.886;5.436;2022-08-01T00:05:22;101530.00;;;24.42;100.00
48846;BME280;34665;51.886;5.436;2022-08-01T00:07:47;101528.63;;;24.29;100.00
48846;BME280;34665;51.886;5.436;2022-08-01T00:10:14;101537.13;;;24.28;100.00
48846;BME280;34665;51.886;5.436;2022-08-01T00:12:41;101538.22;;;24.47;100.00
48846;BME280;34665;51.886;5.436;2022-08-01T00:15:09;101537.13;;;24.43;100.00
48846;BME280;34665;51.886;5.436;2022-08-01T00:17:35;101527.56;;;24.36;100.00
48846;BME280;34665;51.886;5.436;2022-08-01T00:20:03;101537.94;;;24.39;100.00
48846;BME280;34665;51.886;5.436;2022-08-01T00:22:33;101531.91;;;24.31;100.00
48846;BME280;34665;51.886;5.436;2022-08-01T00:24:59;101537.66;;;24.30;100.00
48846;BME280;34665;51.886;5.436;2022-08-01T00:27:25;101536.03;;;24.29;100.00
48846;BME280;34665;51.886;5.436;2022-08-01T00:29:52;101539.81;;;24.12;100.00
48846;BME280;34665;51.886;5.436;2022-08-01T00:32:17;101535.41;;;24.01;100.00
48846;BME280;34665;51.886;5.436;2022-08-01T00:34:43;101540.38;;;24.14;100.00
48846;BME280;34665;51.886;5.436;2022-08-01T00:37:09;101535.38;;;23.90;100.00
48846;BME280;34665;51.886;5.436;2022-08-01T00:39:34;101541.38;;;23.98;100.00
48846;BME280;34665;51.886;5.436;2022-08-01T00:42:05;101539.81;;;24.17;100.00
48846;BME280;34665;51.886;5.436;2022-08-01T00:44:32;101539.28;;;24.15;100.00
48846;BME280;34665;51.886;5.436;2022-08-01T00:46:58;101537.00;;;23.91;100.00
48846;BME280;34665;51.886;5.436;2022-08-01T00:49:23;101537.25;;;23.85;100.00
48846;BME280;34665;51.886;5.436;2022-08-01T00:51:49;101536.44;;;23.79;100.00
48846;BME280;34665;51.886;5.436;2022-08-01T00:54:15;101541.38;;;23.98;100.00
48846;BME280;34665;51.886;5.436;2022-08-01T00:56:40;101540.28;;;23.94;100.00
48846;BME280;34665;51.886;5.436;2022-08-01T00:59:07;101542.47;;;23.91;100.00
48846;BME280;34665;51.886;5.436;2022-08-01T01:01:32;101538.66;;;23.92;100.00
48846;BME280;34665;51.886;5.436;2022-08-01T01:03:58;101542.81;;;24.05;100.00
48846;BME280;34665;51.886;5.436;2022-08-01T01:09:02;101537.84;;;23.92;100.00
48846;BME280;34665;51.886;5.436;2022-08-01T01:11:42;101537.31;;;23.95;100.00
48846;BME280;34665;51.886;5.436;2022-08-01T01:14:13;101537.88;;;24.02;100.00
48846;BME280;34665;51.886;5.436;2022-08-01T01:16:42;101537.31;;;23.95;100.00
48846;BME280;34665;51.886;5.436;2022-08-01T01:19:14;101536.44;;;23.84;100.00
48846;BME280;34665;51.886;5.436;2022-08-01T01:21:58;101535.91;;;23.87;100.00
48846;BME280;34665;51.886;5.436;2022-08-01T01:27:39;101541.13;;;23.94;100.00
48846;BME280;34665;51.886;5.436;2022-08-01T01:30:08;101541.91;;;23.84;100.00
48846;BME280;34665;51.886;5.436;2022-08-01T01:32:35;101535.63;;;23.84;100.00
48846;BME280;34665;51.886;5.436;2022-08-01T01:35:07;101536.38;;;23.63;100.00
48846;BME280;34665;51.886;5.436;2022-08-01T01:37:37;101530.03;;;23.47;100.00
48846;BME280;34665;51.886;5.436;2022-08-01T01:40:04;101523.53;;;23.59;100.00
48846;BME280;34665;51.886;5.436;2022-08-01T01:42:32;101532.75;;;23.42;100.00
48846;BME280;34665;51.886;5.436;2022-08-01T01:44:58;101538.09;;;23.85;100.00
48846;BME280;34665;51.886;5.436;2022-08-01T01:47:27;101538.38;;;23.94;100.00
48846;BME280;34665;51.886;5.436;2022-08-01T01:49:54;101538.38;;;23.89;100.00
48846;BME280;34665;51.886;5.436;2022-08-01T01:52:21;101533.25;;;24.03;100.00
48846;BME280;34665;51.886;5.436;2022-08-01T01:54:50;101532.88;;;23.84;100.00
48846;BME280;34665;51.886;5.436;2022-08-01T01:57:18;101539.19;;;23.89;100.00
48846;BME280;34665;51.886;5.436;2022-08-01T01:59:44;101537.09;;;24.07;100.00
48846;BME280;34665;51.886;5.436;2022-08-01T02:02:11;101535.41;;;24.01;100.00
48846;BME280;34665;51.886;5.436;2022-08-01T02:04:40;101531.00;;;23.84;100.00
48846;BME280;34665;51.886;5.436;2022-08-01T02:07:09;101531.00;;;23.89;100.00
48846;BME280;34665;51.886;5.436;2022-08-01T02:09:37;101533.16;;;23.77;100.00
48846;BME280;34665;51.886;5.436;2022-08-01T02:12:03;101529.44;;;23.40;100.00
48846;BME280;34665;51.886;5.436;2022-08-01T02:14:32;101529.50;;;23.56;100.00
48846;BME280;34665;51.886;5.436;2022-08-01T02:17:00;101535.09;;;23.28;100.00
48846;BME280;34665;51.886;5.436;2022-08-01T02:19:29;101527.75;;;23.29;100.00
48846;BME280;34665;51.886;5.436;2022-08-01T02:22:00;101532.47;;;22.96;100.00
48846;BME280;34665;51.886;5.436;2022-08-01T02:24:37;101531.25;;;23.24;100.00
48846;BME280;34665;51.886;5.436;2022-08-01T02:27:09;101533.34;;;23.55;100.00
48846;BME280;34665;51.886;5.436;2022-08-01T02:29:41;101536.94;;;23.71;100.00
48846;BME280;34665;51.886;5.436;2022-08-01T02:32:11;101536.25;;;23.32;100.00
48846;BME280;34665;51.886;5.436;2022-08-01T02:34:40;101548.69;;;23.18;100.00
48846;BME280;34665;51.886;5.436;2022-08-01T02:37:07;101540.72;;;23.54;100.00
48846;BME280;34665;51.886;5.436;2022-08-01T02:39:35;101544.25;;;23.55;100.00
48846;BME280;34665;51.886;5.436;2022-08-01T02:42:04;101550.81;;;23.59;100.00
48846;BME280;34665;51.886;5.436;2022-08-01T02:44:35;101557.38;;;23.63;100.00
48846;BME280;34665;51.886;5.436;2022-08-01T02:47:02;101553.84;;;23.62;100.00
48846;BME280;34665;51.886;5.436;2022-08-01T02:49:37;101550.47;;;23.40;100.00
48846;BME280;34665;51.886;5.436;2022-08-01T02:52:07;101554.84;;;23.41;100.00
48846;BME280;34665;51.886;5.436;2022-08-01T02:54:34;101549.91;;;23.38;100.00
48846;BME280;34665;51.886;5.436;2022-08-01T02:57:02;101549.94;;;23.48;100.00
48846;BME280;34665;51.886;5.436;2022-08-01T02:59:30;101542.06;;;23.52;100.00
48846;BME280;34665;51.886;5.436;2022-08-01T03:01:57;101541.16;;;23.30;100.00
48846;BME280;34665;51.886;5.436;2022-08-01T03:04:24;101535.97;;;22.91;100.00
48846;BME280;34665;51.886;5.436;2022-08-01T03:06:54;101540.09;;;23.37;100.00
48846;BME280;34665;51.886;5.436;2022-08-01T03:09:20;101542.97;;;22.82;100.00
48846;BME280;34665;51.886;5.436;2022-08-01T03:11:47;101541.47;;;23.01;100.00
48846;BME280;34665;51.886;5.436;2022-08-01T03:14:15;101544.94;;;22.54;100.00
48846;BME280;34665;51.886;5.436;2022-08-01T03:16:42;101538.28;;;22.44;100.00
48846;BME280;34665;51.886;5.436;2022-08-01T03:19:11;101546.09;;;22.08;100.00
48846;BME280;34665;51.886;5.436;2022-08-01T03:24:04;101551.91;;;22.44;100.00
48846;BME280;34665;51.886;5.436;2022-08-01T03:26:32;101552.50;;;22.46;100.00
48846;BME280;34665;51.886;5.436;2022-08-01T03:29:04;101560.41;;;22.48;100.00
48846;BME280;34665;51.886;5.436;2022-08-01T03:31:34;101563.41;;;22.46;100.00
48846;BME280;34665;51.886;5.436;2022-08-01T03:36:28;101553.56;;;22.45;100.00
48846;BME280;34665;51.886;5.436;2022-08-01T03:38:56;101550.13;;;22.28;100.00
48846;BME280;34665;51.886;5.436;2022-08-01T03:41:25;101547.91;;;22.85;100.00
48846;BME280;34665;51.886;5.436;2022-08-01T03:44:02;101546.97;;;22.41;100.00
48846;BME280;34665;51.886;5.436;2022-08-01T03:46:34;101556.09;;;22.25;100.00
48846;BME280;34665;51.886;5.436;2022-08-01T03:49:06;101546.78;;;22.20;100.00
48846;BME280;34665;51.886;5.436;2022-08-01T03:51:35;101545.44;;;22.23;100.00
48846;BME280;34665;51.886;5.436;2022-08-01T03:54:03;101544.63;;;22.23;100.00
48846;BME280;34665;51.886;5.436;2022-08-01T03:56:30;101545.91;;;22.15;100.00
48846;BME280;34665;51.886;5.436;2022-08-01T03:58:59;101547.34;;;22.23;100.00
48846;BME280;34665;51.886;5.436;2022-08-01T04:01:26;101552.31;;;22.31;100.00
48846;BME280;34665;51.886;5.436;2022-08-01T04:03:53;101555.59;;;22.33;100.00
48846;BME280;34665;51.886;5.436;2022-08-01T04:06:19;101554.16;;;22.25;100.00
48846;BME280;34665;51.886;5.436;2022-08-01T04:08:45;101551.16;;;22.22;100.00
48846;BME280;34665;51.886;5.436;2022-08-01T04:11:24;101557.31;;;22.39;100.00
48846;BME280;34665;51.886;5.436;2022-08-01T04:13:52;101562.78;;;22.39;100.00
48846;BME280;34665;51.886;5.436;2022-08-01T04:16:19;101555.88;;;22.59;100.00
48846;BME280;34665;51.886;5.436;2022-08-01T04:18:45;101555.31;;;22.57;100.00
48846;BME280;34665;51.886;5.436;2022-08-01T04:21:10;101563.63;;;22.72;100.00
48846;BME280;34665;51.886;5.436;2022-08-01T04:23:38;101560.38;;;22.75;100.00
48846;BME280;34665;51.886;5.436;2022-08-01T04:26:05;101562.00;;;22.76;100.00
48846;BME280;34665;51.886;5.436;2022-08-01T04:28:31;101563.03;;;22.65;100.00
48846;BME280;34665;51.886;5.436;2022-08-01T04:31:00;101565.84;;;22.81;100.00
48846;BME280;34665;51.886;5.436;2022-08-01T04:33:26;101559.63;;;22.85;100.00
48846;BME280;34665;51.886;5.436;2022-08-01T04:35:53;101564.41;;;22.68;100.00
48846;BME280;34665;51.886;5.436;2022-08-01T04:38:22;101571.94;;;22.55;100.00
48846;BME280;34665;51.886;5.436;2022-08-01T04:40:52;101570.28;;;22.54;100.00
48846;BME280;34665;51.886;5.436;2022-08-01T04:43:20;101568.34;;;22.49;100.00
48846;BME280;34665;51.886;5.436;2022-08-01T04:45:47;101578.59;;;22.42;100.00
48846;BME280;34665;51.886;5.436;2022-08-01T04:48:13;101576.50;;;22.49;100.00
48846;BME280;34665;51.886;5.436;2022-08-01T04:50:40;101577.53;;;22.43;100.00
48846;BME280;34665;51.886;5.436;2022-08-01T04:53:19;101581.88;;;22.44;100.00
48846;BME280;34665;51.886;5.436;2022-08-01T04:55:47;101590.50;;;22.58;100.00
48846;BME280;34665;51.886;5.436;2022-08-01T04:58:16;101594.56;;;22.56;100.00
48846;BME280;34665;51.886;5.436;2022-08-01T05:00:42;101593.22;;;22.58;100.00
48846;BME280;34665;51.886;5.436;2022-08-01T05:03:07;101601.56;;;22.46;100.00
48846;BME280;34665;51.886;5.436;2022-08-01T05:05:33;101596.47;;;22.33;100.00
48846;BME280;34665;51.886;5.436;2022-08-01T05:07:59;101601.09;;;22.55;100.00
48846;BME280;34665;51.886;5.436;2022-08-01T05:10:25;101605.78;;;22.59;100.00
48846;BME280;34665;51.886;5.436;2022-08-01T05:12:51;101600.84;;;22.56;100.00
48846;BME280;34665;51.886;5.436;2022-08-01T05:15:17;101600.53;;;22.53;100.00
48846;BME280;34665;51.886;5.436;2022-08-01T05:17:42;101605.28;;;22.68;100.00
48846;BME280;34665;51.886;5.436;2022-08-01T05:20:08;101605.81;;;22.97;100.00
48846;BME280;34665;51.886;5.436;2022-08-01T05:22:34;101611.19;;;23.19;100.00
48846;BME280;34665;51.886;5.436;2022-08-01T05:25:00;101599.03;;;23.00;100.00
48846;BME280;34665;51.886;5.436;2022-08-01T05:27:26;101594.84;;;22.87;100.00
48846;BME280;34665;51.886;5.436;2022-08-01T05:29:51;101598.66;;;22.86;100.00
48846;BME280;34665;51.886;5.436;2022-08-01T05:32:17;101602.75;;;22.88;100.00
48846;BME280;34665;51.886;5.436;2022-08-01T05:34:42;101605.28;;;23.00;100.00
48846;BME280;34665;51.886;5.436;2022-08-01T05:37:08;101609.78;;;23.17;100.00
48846;BME280;34665;51.886;5.436;2022-08-01T05:39:33;101611.91;;;23.10;100.00
48846;BME280;34665;51.886;5.436;2022-08-01T05:41:59;101615.63;;;23.31;100.00
48846;BME280;34665;51.886;5.436;2022-08-01T05:44:24;101607.56;;;23.09;100.00
48846;BME280;34665;51.886;5.436;2022-08-01T05:46:51;101608.78;;;23.28;100.00
48846;BME280;34665;51.886;5.436;2022-08-01T05:49:17;101611.59;;;23.39;100.00
48846;BME280;34665;51.886;5.436;2022-08-01T05:51:42;101611.69;;;23.54;100.00
48846;BME280;34665;51.886;5.436;2022-08-01T05:54:08;101613.94;;;23.68;100.00
48846;BME280;34665;51.886;5.436;2022-08-01T05:56:33;101615.03;;;23.72;100.00
48846;BME280;34665;51.886;5.436;2022-08-01T05:58:59;101615.66;;;23.84;100.00
48846;BME280;34665;51.886;5.436;2022-08-01T06:01:24;101615.97;;;23.93;100.00
48846;BME280;34665;51.886;5.436;2022-08-01T06:03:50;101628.44;;;23.78;100.00
48846;BME280;34665;51.886;5.436;2022-08-01T06:06:15;101616.94;;;23.66;100.00
48846;BME280;34665;51.886;5.436;2022-08-01T06:08:41;101624.38;;;23.81;100.00
48846;BME280;34665;51.886;5.436;2022-08-01T06:11:07;101624.94;;;23.83;100.00
48846;BME280;34665;51.886;5.436;2022-08-01T06:13:32;101618.94;;;23.91;100.00
48846;BME280;34665;51.886;5.436;2022-08-01T06:15:58;101617.84;;;23.92;100.00
48846;BME280;34665;51.886;5.436;2022-08-01T06:18:23;101616.31;;;24.12;100.00
48846;BME280;34665;51.886;5.436;2022-08-01T06:20:49;101619.34;;;24.21;100.00
48846;BME280;34665;51.886;5.436;2022-08-01T06:23:15;101621.00;;;24.27;100.00
48846;BME280;34665;51.886;5.436;2022-08-01T06:25:44;101618.50;;;24.10;100.00
48846;BME280;34665;51.886;5.436;2022-08-01T06:28:09;101621.00;;;24.22;100.00
48846;BME280;34665;51.886;5.436;2022-08-01T06:30:35;101631.16;;;24.37;100.00
48846;BME280;34665;51.886;5.436;2022-08-01T06:33:00;101629.78;;;24.40;100.00
48846;BME280;34665;51.886;5.436;2022-08-01T06:35:27;101624.16;;;23.93;100.00
48846;BME280;34665;51.886;5.436;2022-08-01T06:37:56;101633.16;;;23.99;100.00
48846;BME280;34665;51.886;5.436;2022-08-01T06:40:21;101628.59;;;24.04;100.00
48846;BME280;34665;51.886;5.436;2022-08-01T06:42:47;101623.97;;;24.15;100.00
48846;BME280;34665;51.886;5.436;2022-08-01T06:45:14;101636.34;;;24.39;100.00
48846;BME280;34665;51.886;5.436;2022-08-01T06:47:40;101642.72;;;24.86;100.00
48846;BME280;34665;51.886;5.436;2022-08-01T06:50:07;101635.03;;;24.72;100.00
48846;BME280;34665;51.886;5.436;2022-08-01T06:52:33;101639.16;;;24.75;100.00
48846;BME280;34665;51.886;5.436;2022-08-01T06:54:59;101650.38;;;24.84;100.00
48846;BME280;34665;51.886;5.436;2022-08-01T06:57:25;101648.72;;;24.88;100.00
48846;BME280;34665;51.886;5.436;2022-08-01T06:59:51;101642.72;;;24.86;100.00
48846;BME280;34665;51.886;5.436;2022-08-01T07:02:17;101649.84;;;24.76;100.00
48846;BME280;34665;51.886;5.436;2022-08-01T07:04:43;101650.41;;;24.94;100.00
48846;BME280;34665;51.886;5.436;2022-08-01T07:07:08;101651.75;;;25.28;100.00
48846;BME280;34665;51.886;5.436;2022-08-01T07:09:34;101651.47;;;25.40;100.00
48846;BME280;34665;51.886;5.436;2022-08-01T07:11:59;101650.91;;;25.48;100.00
48846;BME280;34665;51.886;5.436;2022-08-01T07:14:25;101657.09;;;25.85;100.00
48846;BME280;34665;51.886;5.436;2022-08-01T07:16:50;101655.81;;;25.61;100.00
48846;BME280;34665;51.886;5.436;2022-08-01T07:19:16;101660.44;;;25.76;100.00
48846;BME280;34665;51.886;5.436;2022-08-01T07:21:42;101659.00;;;25.95;100.00
48846;BME280;34665;51.886;5.436;2022-08-01T07:24:09;101665.31;;;25.95;100.00
48846;BME280;34665;51.886;5.436;2022-08-01T07:26:34;101669.34;;;26.03;100.00
48846;BME280;34665;51.886;5.436;2022-08-01T07:29:00;101679.28;;;25.88;100.00
48846;BME280;34665;51.886;5.436;2022-08-01T07:31:25;101676.25;;;25.95;100.00
48846;BME280;34665;51.886;5.436;2022-08-01T07:33:50;101688.03;;;25.96;100.00
48846;BME280;34665;51.886;5.436;2022-08-01T07:36:16;101685.28;;;25.96;100.00
48846;BME280;34665;51.886;5.436;2022-08-01T07:38:44;101685.88;;;25.82;100.00
48846;BME280;34665;51.886;5.436;2022-08-01T07:41:10;101687.00;;;25.76;100.00
48846;BME280;34665;51.886;5.436;2022-08-01T07:43:36;101686.47;;;25.69;100.00
48846;BME280;34665;51.886;5.436;2022-08-01T07:46:02;101693.59;;;25.59;100.00
48846;BME280;34665;51.886;5.436;2022-08-01T07:48:28;101694.69;;;25.32;100.00
48846;BME280;34665;51.886;5.436;2022-08-01T07:50:54;101696.34;;;25.39;100.00
48846;BME280;34665;51.886;5.436;2022-08-01T07:53:19;101699.38;;;25.32;100.00
48846;BME280;34665;51.886;5.436;2022-08-01T07:55:45;101692.53;;;25.24;100.00
48846;BME280;34665;51.886;5.436;2022-08-01T07:58:10;101697.16;;;25.18;100.00
48846;BME280;34665;51.886;5.436;2022-08-01T08:00:35;101698.25;;;24.91;100.00
48846;BME280;34665;51.886;5.436;2022-08-01T08:03:01;101700.69;;;24.72;100.00
48846;BME280;34665;51.886;5.436;2022-08-01T08:05:26;101707.19;;;24.66;100.00
48846;BME280;34665;51.886;5.436;2022-08-01T08:07:52;101699.53;;;24.53;100.00
48846;BME280;34665;51.886;5.436;2022-08-01T08:10:18;101706.69;;;24.69;100.00
48846;BME280;34665;51.886;5.436;2022-08-01T08:12:44;101713.03;;;24.90;100.00
48846;BME280;34665;51.886;5.436;2022-08-01T08:15:12;101704.56;;;25.13;100.00
48846;BME280;34665;51.886;5.436;2022-08-01T08:17:38;101706.47;;;25.33;100.00
48846;BME280;34665;51.886;5.436;2022-08-01T08:20:06;101704.00;;;25.31;100.00
48846;BME280;34665;51.886;5.436;2022-08-01T08:22:32;101706.19;;;25.55;100.00
48846;BME280;34665;51.886;5.436;2022-08-01T08:24:58;101712.75;;;25.75;100.00
48846;BME280;34665;51.886;5.436;2022-08-01T08:27:24;101706.16;;;25.81;100.00
48846;BME280;34665;51.886;5.436;2022-08-01T08:29:49;101708.06;;;25.86;100.00
48846;BME280;34665;51.886;5.436;2022-08-01T08:32:14;101709.09;;;26.05;100.00
48846;BME280;34665;51.886;5.436;2022-08-01T08:34:40;101703.84;;;26.19;100.00
48846;BME280;34665;51.886;5.436;2022-08-01T08:37:06;101710.06;;;26.46;100.00
48846;BME280;34665;51.886;5.436;2022-08-01T08:39:32;101715.22;;;26.47;100.00
48846;BME280;34665;51.886;5.436;2022-08-01T08:42:06;101710.47;;;26.63;100.00
48846;BME280;34665;51.886;5.436;2022-08-01T08:44:32;101720.03;;;26.71;100.00
48846;BME280;34665;51.886;5.436;2022-08-01T08:46:57;101727.81;;;26.59;100.00
48846;BME280;34665;51.886;5.436;2022-08-01T08:49:28;101722.72;;;26.82;100.00
48846;BME280;34665;51.886;5.436;2022-08-01T08:51:58;101729.78;;;26.93;100.00
48846;BME280;34665;51.886;5.436;2022-08-01T08:54:25;101723.78;;;26.91;100.00
48846;BME280;34665;51.886;5.436;2022-08-01T08:56:52;101724.31;;;26.93;100.00
48846;BME280;34665;51.886;5.436;2022-08-01T08:59:18;101723.81;;;26.86;100.00
48846;BME280;34665;51.886;5.436;2022-08-01T09:01:45;101733.81;;;26.61;100.00
48846;BME280;34665;51.886;5.436;2022-08-01T09:04:11;101733.91;;;26.45;100.00
48846;BME280;34665;51.886;5.436;2022-08-01T09:06:37;101737.28;;;26.32;100.00
48846;BME280;34665;51.886;5.436;2022-08-01T09:09:03;101742.66;;;25.51;100.00
48846;BME280;34665;51.886;5.436;2022-08-01T09:11:29;101748.34;;;25.28;100.00
48846;BME280;34665;51.886;5.436;2022-08-01T09:14:02;101741.47;;;24.95;100.00
48846;BME280;34665;51.886;5.436;2022-08-01T09:16:29;101747.22;;;24.77;100.00
48846;BME280;34665;51.886;5.436;2022-08-01T09:19:16;101745.56;;;24.82;100.00
48846;BME280;34665;51.886;5.436;2022-08-01T09:22:01;101758.66;;;24.74;100.00
48846;BME280;34665;51.886;5.436;2022-08-01T09:24:28;101761.94;;;24.71;100.00
48846;BME280;34665;51.886;5.436;2022-08-01T09:26:54;101766.25;;;24.62;100.00
48846;BME280;34665;51.886;5.436;2022-08-01T09:29:23;101765.38;;;24.41;100.00
48846;BME280;34665;51.886;5.436;2022-08-01T09:31:49;101770.06;;;24.56;100.00
48846;BME280;34665;51.886;5.436;2022-08-01T09:34:16;101773.94;;;24.65;100.00
48846;BME280;34665;51.886;5.436;2022-08-01T09:36:50;101768.53;;;24.86;100.00
48846;BME280;34665;51.886;5.436;2022-08-01T09:39:29;101772.06;;;24.76;100.00
48846;BME280;34665;51.886;5.436;2022-08-01T09:41:59;101774.81;;;24.76;100.00
48846;BME280;34665;51.886;5.436;2022-08-01T09:44:39;101774.22;;;24.74;100.00
48846;BME280;34665;51.886;5.436;2022-08-01T09:47:05;101769.84;;;24.73;100.00
48846;BME280;34665;51.886;5.436;2022-08-01T09:49:32;101785.50;;;24.83;100.00
48846;BME280;34665;51.886;5.436;2022-08-01T09:52:09;101783.91;;;24.92;100.00
48846;BME280;34665;51.886;5.436;2022-08-01T09:54:36;101769.97;;;25.04;100.00
48846;BME280;34665;51.886;5.436;2022-08-01T09:57:14;101777.63;;;25.07;100.00
48846;BME280;34665;51.886;5.436;2022-08-01T09:59:43;101782.28;;;25.12;100.00
48846;BME280;34665;51.886;5.436;2022-08-01T10:02:10;101783.94;;;25.33;100.00
48846;BME280;34665;51.886;5.436;2022-08-01T10:04:46;101780.97;;;25.61;100.00
48846;BME280;34665;51.886;5.436;2022-08-01T10:07:13;101781.81;;;25.61;100.00
48846;BME280;34665;51.886;5.436;2022-08-01T10:09:41;101787.53;;;25.70;100.00
48846;BME280;34665;51.886;5.436;2022-08-01T10:12:09;101793.81;;;25.86;100.00
48846;BME280;34665;51.886;5.436;2022-08-01T10:14:36;101792.44;;;25.89;100.00
48846;BME280;34665;51.886;5.436;2022-08-01T10:17:01;101799.28;;;25.97;100.00
48846;BME280;34665;51.886;5.436;2022-08-01T10:19:28;101800.41;;;25.75;100.00
48846;BME280;34665;51.886;5.436;2022-08-01T10:21:55;101793.56;;;25.67;100.00
48846;BME280;34665;51.886;5.436;2022-08-01T10:24:21;101804.25;;;25.48;100.00
48846;BME280;34665;51.886;5.436;2022-08-01T10:26:48;101784.53;;;25.56;100.00
48846;BME280;34665;51.886;5.436;2022-08-01T10:29:18;101800.94;;;25.82;100.00
48846;BME280;34665;51.886;5.436;2022-08-01T10:31:46;101791.84;;;26.08;100.00
48846;BME280;34665;51.886;5.436;2022-08-01T10:34:15;101793.50;;;26.24;100.00
48846;BME280;34665;51.886;5.436;2022-08-01T10:36:47;101797.94;;;26.70;100.00
48846;BME280;34665;51.886;5.436;2022-08-01T10:39:13;101798.19;;;26.79;100.00
48846;BME280;34665;51.886;5.436;2022-08-01T10:41:39;101797.81;;;27.01;100.00
48846;BME280;34665;51.886;5.436;2022-08-01T10:44:08;101793.72;;;26.99;100.00
48846;BME280;34665;51.886;5.436;2022-08-01T10:46:37;101787.97;;;26.95;100.00
48846;BME280;34665;51.886;5.436;2022-08-01T10:49:15;101786.16;;;27.20;100.00
48846;BME280;34665;51.886;5.436;2022-08-01T10:51:43;101779.53;;;27.26;100.00
48846;BME280;34665;51.886;5.436;2022-08-01T10:54:10;101783.88;;;27.32;100.00
48846;BME280;34665;51.886;5.436;2022-08-01T10:56:48;101786.72;;;27.17;100.00
48846;BME280;34665;51.886;5.436;2022-08-01T10:59:20;101786.56;;;27.38;100.00
48846;BME280;34665;51.886;5.436;2022-08-01T11:01:56;101787.81;;;27.16;100.00
48846;BME280;34665;51.886;5.436;2022-08-01T11:04:32;101790.78;;;27.25;100.00
48846;BME280;34665;51.886;5.436;2022-08-01T11:07:04;101791.63;;;27.25;100.00
48846;BME280;34665;51.886;5.436;2022-08-01T11:09:42;101792.69;;;27.94;100.00
48846;BME280;34665;51.886;5.436;2022-08-01T11:12:11;101794.66;;;28.12;100.00
48846;BME280;34665;51.886;5.436;2022-08-01T11:17:42;101795.00;;;28.35;100.00
48846;BME280;34665;51.886;5.436;2022-08-01T11:26:05;101804.88;;;27.53;100.00
48846;BME280;34665;51.886;5.436;2022-08-01T11:33:09;101814.38;;;26.81;100.00
48846;BME280;34665;51.886;5.436;2022-08-01T11:35:35;101818.47;;;26.83;100.00
48846;BME280;34665;51.886;5.436;2022-08-01T11:38:24;101818.72;;;26.92;100.00
48846;BME280;34665;51.886;5.436;2022-08-01T11:41:13;101815.91;;;27.08;100.00
48846;BME280;34665;51.886;5.436;2022-08-01T11:46:55;101807.94;;;27.46;100.00
48846;BME280;34665;51.886;5.436;2022-08-01T11:49:43;101817.03;;;27.76;100.00
48846;BME280;34665;51.886;5.436;2022-08-01T11:52:39;101803.84;;;28.02;100.00
48846;BME280;34665;51.886;5.436;2022-08-01T11:55:08;101810.06;;;28.13;100.00
48846;BME280;34665;51.886;5.436;2022-08-01T11:57:34;101810.66;;;28.10;100.00
48846;BME280;34665;51.886;5.436;2022-08-01T12:00:14;101816.06;;;28.21;100.00
48846;BME280;34665;51.886;5.436;2022-08-01T12:02:40;101813.00;;;28.22;100.00
48846;BME280;34665;51.886;5.436;2022-08-01T12:07:35;101820.06;;;28.33;100.00
48846;BME280;34665;51.886;5.436;2022-08-01T12:12:35;101818.78;;;28.69;100.00
48846;BME280;34665;51.886;5.436;2022-08-01T12:15:04;101818.91;;;28.83;100.00
48846;BME280;34665;51.886;5.436;2022-08-01T12:17:37;101814.25;;;28.79;100.00
48846;BME280;34665;51.886;5.436;2022-08-01T12:20:05;101819.09;;;30.25;100.00
48846;BME280;34665;51.886;5.436;2022-08-01T12:22:31;101822.06;;;32.16;100.00
48846;BME280;34665;51.886;5.436;2022-08-01T12:27:36;101822.72;;;34.37;82.11
48846;BME280;34665;51.886;5.436;2022-08-01T12:30:08;101835.03;;;34.57;74.69
48846;BME280;34665;51.886;5.436;2022-08-01T12:32:36;101832.59;;;35.86;69.92
48846;BME280;34665;51.886;5.436;2022-08-01T12:35:08;101838.28;;;36.52;66.77
48846;BME280;34665;51.886;5.436;2022-08-01T12:37:38;101832.84;;;36.19;63.81
48846;BME280;34665;51.886;5.436;2022-08-01T12:40:18;101833.50;;;35.91;63.13
48846;BME280;34665;51.886;5.436;2022-08-01T12:42:49;101830.25;;;35.88;65.31
48846;BME280;34665;51.886;5.436;2022-08-01T12:45:18;101825.00;;;35.28;70.74
48846;BME280;34665;51.886;5.436;2022-08-01T12:47:43;101820.81;;;34.80;71.52
48846;BME280;34665;51.886;5.436;2022-08-01T12:50:13;101824.50;;;34.50;70.71
48846;BME280;34665;51.886;5.436;2022-08-01T12:52:39;101817.78;;;35.49;66.35
48846;BME280;34665;51.886;5.436;2022-08-01T12:55:08;101817.66;;;35.45;67.28
48846;BME280;34665;51.886;5.436;2022-08-01T12:57:35;101815.44;;;34.62;71.02
48846;BME280;34665;51.886;5.436;2022-08-01T13:00:24;101825.06;;;33.87;73.92
48846;BME280;34665;51.886;5.436;2022-08-01T13:03:06;101823.28;;;35.02;70.24
48846;BME280;34665;51.886;5.436;2022-08-01T13:05:45;101832.19;;;36.87;58.32
48846;BME280;34665;51.886;5.436;2022-08-01T13:08:19;101838.19;;;38.07;52.39
48846;BME280;34665;51.886;5.436;2022-08-01T13:10:45;101830.69;;;37.79;52.06
48846;BME280;34665;51.886;5.436;2022-08-01T13:13:12;101821.91;;;36.51;58.94
48846;BME280;34665;51.886;5.436;2022-08-01T13:15:40;101813.66;;;37.08;52.13
48846;BME280;34665;51.886;5.436;2022-08-01T13:18:23;101825.06;;;36.90;60.63
48846;BME280;34665;51.886;5.436;2022-08-01T13:20:50;101817.66;;;36.94;54.55